sensor_id;sensor_type;location;lat;lon;timestamp;pressure;altitude;pressure_sealevel;temperature;humidity
31082;BME280;17737;52.586;13.284;2022-08-19T00:01:36;100499.09;;;20.49;100.00
31082;BME280;17737;52.586;13.284;2022-08-19T00:04:07;100502.63;;;20.50;100.00
31082;BME280;17737;52.586;13.284;2022-08-19T00:06:37;100492.09;;;20.48;100.00
31082;BME280;17737;52.586;13.284;2022-08-19T00:09:09;100488.53;;;20.51;100.00
31082;BME280;17737;52.586;13.284;2022-08-19T00:11:39;100485.84;;;20.48;100.00
31082;BME280;17737;52.586;13.284;2022-08-19T00:14:07;100488.13;;;20.53;100.00
31082;BME280;17737;52.586;13.284;2022-08-19T00:16:37;100488.91;;;20.50;100.00
31082;BME280;17737;52.586;13.284;2022-08-19T00:19:07;100493.31;;;20.43;100.00
31082;BME280;17737;52.586;13.284;2022-08-19T00:21:35;100489.19;;;20.59;100.00
31082;BME280;17737;52.586;13.284;2022-08-19T00:24:05;100506.47;;;20.56;100.00
31082;BME280;17737;52.586;13.284;2022-08-19T00:26:34;100495.44;;;20.59;100.00
31082;BME280;17737;52.586;13.284;2022-08-19T00:29:03;100493.84;;;20.62;100.00
31082;BME280;17737;52.586;13.284;2022-08-19T00:31:31;100484.56;;;20.56;100.00
31082;BME280;17737;52.586;13.284;2022-08-19T00:33:59;100488.53;;;20.51;100.00
31082;BME280;17737;52.586;13.284;2022-08-19T00:36:28;100504.94;;;20.55;100.00
31082;BME280;17737;52.586;13.284;2022-08-19T00:38:58;100502.47;;;20.60;100.00
31082;BME280;17737;52.586;13.284;2022-08-19T00:41:26;100503.97;;;20.65;100.00
31082;BME280;17737;52.586;13.284;2022-08-19T00:43:59;100489.78;;;20.70;100.00
31082;BME280;17737;52.586;13.284;2022-08-19T00:46:28;100500.56;;;20.57;100.00
31082;BME280;17737;52.586;13.284;2022-08-19T00:48:57;100498.97;;;20.60;100.00
31082;BME280;17737;52.586;13.284;2022-08-19T00:51:27;100486.00;;;20.37;100.00
31082;BME280;17737;52.586;13.284;2022-08-19T00:53:58;100496.16;;;20.36;100.00
31082;BME280;17737;52.586;13.284;2022-08-19T00:56:28;100480.66;;;20.30;100.00
31082;BME280;17737;52.586;13.284;2022-08-19T00:58:57;100490.78;;;20.06;100.00
31082;BME280;17737;52.586;13.284;2022-08-19T01:01:28;100484.56;;;20.02;100.00
31082;BME280;17737;52.586;13.284;2022-08-19T01:03:56;100486.84;;;20.07;100.00
31082;BME280;17737;52.586;13.284;2022-08-19T01:06:24;100485.97;;;20.13;100.00
31082;BME280;17737;52.586;13.284;2022-08-19T01:08:54;100481.47;;;20.27;100.00
31082;BME280;17737;52.586;13.284;2022-08-19T01:11:22;100481.59;;;20.19;100.00
31082;BME280;17737;52.586;13.284;2022-08-19T01:13:50;100485.53;;;20.15;100.00
31082;BME280;17737;52.586;13.284;2022-08-19T01:16:20;100483.13;;;20.21;100.00
31082;BME280;17737;52.586;13.284;2022-08-19T01:18:51;100485.03;;;20.24;100.00
31082;BME280;17737;52.586;13.284;2022-08-19T01:21:20;100494.91;;;20.17;100.00
31082;BME280;17737;52.586;13.284;2022-08-19T01:23:55;100489.06;;;20.15;100.00
31082;BME280;17737;52.586;13.284;2022-08-19T01:26:24;100494.53;;;20.15;100.00
31082;BME280;17737;52.586;13.284;2022-08-19T01:28:54;100499.56;;;20.21;100.00
31082;BME280;17737;52.586;13.284;2022-08-19T01:31:27;100507.81;;;20.17;100.00
31082;BME280;17737;52.586;13.284;2022-08-19T01:33:58;100507.66;;;20.28;100.00
31082;BME280;17737;52.586;13.284;2022-08-19T01:36:28;100510.56;;;20.17;100.00
31082;BME280;17737;52.586;13.284;2022-08-19T01:39:01;100510.56;;;20.17;100.00
31082;BME280;17737;52.586;13.284;2022-08-19T01:41:31;100527.47;;;20.08;100.00
31082;BME280;17737;52.586;13.284;2022-08-19T01:44:00;100522.06;;;20.05;100.00
31082;BME280;17737;52.586;13.284;2022-08-19T01:46:44;100522.44;;;20.07;100.00
31082;BME280;17737;52.586;13.284;2022-08-19T01:49:15;100532.13;;;20.11;100.00
31082;BME280;17737;52.586;13.284;2022-08-19T01:51:44;100532.63;;;20.33;100.00
31082;BME280;17737;52.586;13.284;2022-08-19T01:54:14;100530.16;;;20.12;100.00
31082;BME280;17737;52.586;13.284;2022-08-19T01:56:54;100538.28;;;20.19;100.00
31082;BME280;17737;52.586;13.284;2022-08-19T01:59:26;100538.44;;;20.08;100.00
31082;BME280;17737;52.586;13.284;2022-08-19T02:01:54;100556.22;;;20.24;100.00
31082;BME280;17737;52.586;13.284;2022-08-19T02:04:22;100549.00;;;20.37;100.00
31082;BME280;17737;52.586;13.284;2022-08-19T02:06:51;100556.28;;;20.20;100.00
31082;BME280;17737;52.586;13.284;2022-08-19T02:09:20;100544.63;;;20.12;100.00
31082;BME280;17737;52.586;13.284;2022-08-19T02:11:48;100545.44;;;20.13;100.00
31082;BME280;17737;52.586;13.284;2022-08-19T02:14:16;100543.38;;;19.90;100.00
31082;BME280;17737;52.586;13.284;2022-08-19T02:16:44;100530.50;;;19.87;100.00
31082;BME280;17737;52.586;13.284;2022-08-19T02:19:12;100517.78;;;20.04;100.00
31082;BME280;17737;52.586;13.284;2022-08-19T02:21:39;100496.47;;;19.88;100.00
31082;BME280;17737;52.586;13.284;2022-08-19T02:24:09;100488.50;;;19.70;100.00
31082;BME280;17737;52.586;13.284;2022-08-19T02:26:39;100476.75;;;19.73;100.00
31082;BME280;17737;52.586;13.284;2022-08-19T02:29:07;100463.53;;;19.68;100.00
31082;BME280;17737;52.586;13.284;2022-08-19T02:31:35;100446.31;;;19.71;100.00
31082;BME280;17737;52.586;13.284;2022-08-19T02:34:03;100439.91;;;19.51;100.00
31082;BME280;17737;52.586;13.284;2022-08-19T02:36:31;100437.22;;;19.47;100.00
31082;BME280;17737;52.586;13.284;2022-08-19T02:38:58;71414.19;;;-145.00;100.00
31082;BME280;17737;52.586;13.284;2022-08-19T02:41:26;71414.19;;;-145.00;100.00
31082;BME280;17737;52.586;13.284;2022-08-19T02:43:56;71414.19;;;-145.00;100.00
31082;BME280;17737;52.586;13.284;2022-08-19T02:46:44;71414.19;;;-145.00;100.00
31082;BME280;17737;52.586;13.284;2022-08-19T02:49:14;71414.19;;;-145.00;100.00
31082;BME280;17737;52.586;13.284;2022-08-19T02:51:43;71414.19;;;-145.00;100.00
31082;BME280;17737;52.586;13.284;2022-08-19T02:54:13;71414.19;;;-145.00;100.00
31082;BME280;17737;52.586;13.284;2022-08-19T02:56:42;71414.19;;;-145.00;100.00
31082;BME280;17737;52.586;13.284;2022-08-19T02:59:12;71414.19;;;-145.00;100.00
31082;BME280;17737;52.586;13.284;2022-08-19T03:01:40;71414.19;;;-145.00;100.00
31082;BME280;17737;52.586;13.284;2022-08-19T03:04:09;71414.19;;;-145.00;100.00
31082;BME280;17737;52.586;13.284;2022-08-19T03:06:41;71414.19;;;-145.00;100.00
31082;BME280;17737;52.586;13.284;2022-08-19T03:09:11;71414.19;;;-145.00;100.00
31082;BME280;17737;52.586;13.284;2022-08-19T03:11:40;71414.19;;;-145.00;100.00
31082;BME280;17737;52.586;13.284;2022-08-19T03:14:08;71414.19;;;-145.00;100.00
31082;BME280;17737;52.586;13.284;2022-08-19T03:16:41;71414.19;;;-145.00;100.00
31082;BME280;17737;52.586;13.284;2022-08-19T03:19:12;71414.19;;;-145.00;100.00
31082;BME280;17737;52.586;13.284;2022-08-19T03:21:42;71414.19;;;-145.00;100.00
31082;BME280;17737;52.586;13.284;2022-08-19T03:24:12;71414.19;;;-145.00;100.00
31082;BME280;17737;52.586;13.284;2022-08-19T03:26:42;71414.19;;;-145.00;100.00
31082;BME280;17737;52.586;13.284;2022-08-19T03:29:11;71414.19;;;-145.00;100.00
31082;BME280;17737;52.586;13.284;2022-08-19T03:31:41;71414.19;;;-145.00;100.00
31082;BME280;17737;52.586;13.284;2022-08-19T03:34:18;71414.19;;;-145.00;100.00
31082;BME280;17737;52.586;13.284;2022-08-19T03:36:47;71414.19;;;-145.00;100.00
31082;BME280;17737;52.586;13.284;2022-08-19T03:39:16;71414.19;;;-145.00;100.00
31082;BME280;17737;52.586;13.284;2022-08-19T03:41:45;71414.19;;;-145.00;100.00
31082;BME280;17737;52.586;13.284;2022-08-19T03:44:35;71414.19;;;-145.00;100.00
31082;BME280;17737;52.586;13.284;2022-08-19T03:47:05;71414.19;;;-145.00;100.00
31082;BME280;17737;52.586;13.284;2022-08-19T03:49:33;71414.19;;;-145.00;100.00
31082;BME280;17737;52.586;13.284;2022-08-19T03:52:02;71414.19;;;-145.00;100.00
31082;BME280;17737;52.586;13.284;2022-08-19T03:54:34;71414.19;;;-145.00;100.00
31082;BME280;17737;52.586;13.284;2022-08-19T03:57:04;71414.19;;;-145.00;100.00
31082;BME280;17737;52.586;13.284;2022-08-19T03:59:34;71414.19;;;-145.00;100.00
31082;BME280;17737;52.586;13.284;2022-08-19T04:02:06;71414.19;;;-145.00;100.00
31082;BME280;17737;52.586;13.284;2022-08-19T04:04:36;71414.19;;;-145.00;100.00
31082;BME280;17737;52.586;13.284;2022-08-19T04:07:05;71414.19;;;-145.00;100.00
31082;BME280;17737;52.586;13.284;2022-08-19T04:09:33;71414.19;;;-145.00;100.00
31082;BME280;17737;52.586;13.284;2022-08-19T04:12:03;71414.19;;;-145.00;100.00
31082;BME280;17737;52.586;13.284;2022-08-19T04:14:32;71414.19;;;-145.00;100.00
31082;BME280;17737;52.586;13.284;2022-08-19T04:17:02;71414.19;;;-145.00;100.00
31082;BME280;17737;52.586;13.284;2022-08-19T04:19:33;71414.19;;;-145.00;100.00
31082;BME280;17737;52.586;13.284;2022-08-19T04:22:02;71414.19;;;-145.00;100.00
31082;BME280;17737;52.586;13.284;2022-08-19T04:24:31;71414.19;;;-145.00;100.00
31082;BME280;17737;52.586;13.284;2022-08-19T04:26:59;71414.19;;;-145.00;100.00
31082;BME280;17737;52.586;13.284;2022-08-19T04:29:28;71414.19;;;-145.00;100.00
31082;BME280;17737;52.586;13.284;2022-08-19T04:31:56;71414.19;;;-145.00;100.00
31082;BME280;17737;52.586;13.284;2022-08-19T04:34:36;71414.19;;;-145.00;100.00
31082;BME280;17737;52.586;13.284;2022-08-19T04:37:25;71414.19;;;-145.00;100.00
31082;BME280;17737;52.586;13.284;2022-08-19T04:40:00;71414.19;;;-145.00;100.00
31082;BME280;17737;52.586;13.284;2022-08-19T04:42:47;71414.19;;;-145.00;100.00
31082;BME280;17737;52.586;13.284;2022-08-19T04:45:15;71414.19;;;-145.00;100.00
31082;BME280;17737;52.586;13.284;2022-08-19T04:47:43;71414.19;;;-145.00;100.00
31082;BME280;17737;52.586;13.284;2022-08-19T04:50:24;71414.19;;;-145.00;100.00
31082;BME280;17737;52.586;13.284;2022-08-19T04:52:52;71414.19;;;-145.00;100.00
31082;BME280;17737;52.586;13.284;2022-08-19T04:55:22;71414.19;;;-145.00;100.00
31082;BME280;17737;52.586;13.284;2022-08-19T04:57:52;71414.19;;;-145.00;100.00
31082;BME280;17737;52.586;13.284;2022-08-19T05:00:20;71414.19;;;-145.00;100.00
31082;BME280;17737;52.586;13.284;2022-08-19T05:02:49;71414.19;;;-145.00;100.00
31082;BME280;17737;52.586;13.284;2022-08-19T05:05:17;71414.19;;;-145.00;100.00
31082;BME280;17737;52.586;13.284;2022-08-19T05:07:47;71414.19;;;-145.00;100.00
31082;BME280;17737;52.586;13.284;2022-08-19T05:10:15;71414.19;;;-145.00;100.00
31082;BME280;17737;52.586;13.284;2022-08-19T05:12:43;71414.19;;;-145.00;100.00
31082;BME280;17737;52.586;13.284;2022-08-19T05:15:11;71414.19;;;-145.00;100.00
31082;BME280;17737;52.586;13.284;2022-08-19T05:17:38;71414.19;;;-145.00;100.00
31082;BME280;17737;52.586;13.284;2022-08-19T05:20:27;71414.19;;;-145.00;100.00
31082;BME280;17737;52.586;13.284;2022-08-19T05:23:14;71414.19;;;-145.00;100.00
31082;BME280;17737;52.586;13.284;2022-08-19T05:25:47;71414.19;;;-145.00;100.00
31082;BME280;17737;52.586;13.284;2022-08-19T05:28:15;71414.19;;;-145.00;100.00
31082;BME280;17737;52.586;13.284;2022-08-19T05:30:43;71414.19;;;-145.00;100.00
31082;BME280;17737;52.586;13.284;2022-08-19T05:33:12;71414.19;;;-145.00;100.00
31082;BME280;17737;52.586;13.284;2022-08-19T05:35:40;71414.19;;;-145.00;100.00
31082;BME280;17737;52.586;13.284;2022-08-19T05:38:08;71414.19;;;-145.00;100.00
31082;BME280;17737;52.586;13.284;2022-08-19T05:40:38;71414.19;;;-145.00;100.00
31082;BME280;17737;52.586;13.284;2022-08-19T05:43:07;71414.19;;;-145.00;100.00
31082;BME280;17737;52.586;13.284;2022-08-19T05:45:37;71414.19;;;-145.00;100.00
31082;BME280;17737;52.586;13.284;2022-08-19T05:48:08;71414.19;;;-145.00;100.00
31082;BME280;17737;52.586;13.284;2022-08-19T05:50:37;71414.19;;;-145.00;100.00
31082;BME280;17737;52.586;13.284;2022-08-19T05:53:05;71414.19;;;-145.00;100.00
31082;BME280;17737;52.586;13.284;2022-08-19T05:55:33;71414.19;;;-145.00;100.00
31082;BME280;17737;52.586;13.284;2022-08-19T05:58:04;71414.19;;;-145.00;100.00
31082;BME280;17737;52.586;13.284;2022-08-19T06:00:33;71414.19;;;-145.00;100.00
31082;BME280;17737;52.586;13.284;2022-08-19T06:03:02;71414.19;;;-145.00;100.00
31082;BME280;17737;52.586;13.284;2022-08-19T06:05:38;71414.19;;;-145.00;100.00
31082;BME280;17737;52.586;13.284;2022-08-19T06:08:17;71414.19;;;-145.00;100.00
31082;BME280;17737;52.586;13.284;2022-08-19T06:10:59;71414.19;;;-145.00;100.00
31082;BME280;17737;52.586;13.284;2022-08-19T06:13:41;71414.19;;;-145.00;100.00
31082;BME280;17737;52.586;13.284;2022-08-19T06:16:09;71414.19;;;-145.00;100.00
31082;BME280;17737;52.586;13.284;2022-08-19T06:18:37;71414.19;;;-145.00;100.00
31082;BME280;17737;52.586;13.284;2022-08-19T06:21:05;71414.19;;;-145.00;100.00
31082;BME280;17737;52.586;13.284;2022-08-19T06:23:32;71414.19;;;-145.00;100.00
31082;BME280;17737;52.586;13.284;2022-08-19T06:26:01;71414.19;;;-145.00;100.00
31082;BME280;17737;52.586;13.284;2022-08-19T06:28:30;71414.19;;;-145.00;100.00
31082;BME280;17737;52.586;13.284;2022-08-19T06:31:00;71414.19;;;-145.00;100.00
31082;BME280;17737;52.586;13.284;2022-08-19T06:33:33;71414.19;;;-145.00;100.00
31082;BME280;17737;52.586;13.284;2022-08-19T06:36:01;71414.19;;;-145.00;100.00
31082;BME280;17737;52.586;13.284;2022-08-19T06:38:29;71414.19;;;-145.00;100.00
31082;BME280;17737;52.586;13.284;2022-08-19T06:40:59;71414.19;;;-145.00;100.00
31082;BME280;17737;52.586;13.284;2022-08-19T06:43:33;71414.19;;;-145.00;100.00
31082;BME280;17737;52.586;13.284;2022-08-19T06:46:08;71414.19;;;-145.00;100.00
31082;BME280;17737;52.586;13.284;2022-08-19T06:48:39;71414.19;;;-145.00;100.00
31082;BME280;17737;52.586;13.284;2022-08-19T06:51:10;71414.19;;;-145.00;100.00
31082;BME280;17737;52.586;13.284;2022-08-19T06:53:44;71414.19;;;-145.00;100.00
31082;BME280;17737;52.586;13.284;2022-08-19T06:56:14;71414.19;;;-145.00;100.00
31082;BME280;17737;52.586;13.284;2022-08-19T06:58:42;71414.19;;;-145.00;100.00
31082;BME280;17737;52.586;13.284;2022-08-19T07:01:12;71414.19;;;-145.00;100.00
31082;BME280;17737;52.586;13.284;2022-08-19T07:03:40;71414.19;;;-145.00;100.00
31082;BME280;17737;52.586;13.284;2022-08-19T07:06:08;71414.19;;;-145.00;100.00
31082;BME280;17737;52.586;13.284;2022-08-19T07:08:58;71414.19;;;-145.00;100.00
31082;BME280;17737;52.586;13.284;2022-08-19T07:11:27;71414.19;;;-145.00;100.00
31082;BME280;17737;52.586;13.284;2022-08-19T07:13:55;71414.19;;;-145.00;100.00
31082;BME280;17737;52.586;13.284;2022-08-19T07:16:24;71414.19;;;-145.00;100.00
31082;BME280;17737;52.586;13.284;2022-08-19T07:18:55;71414.19;;;-145.00;100.00
31082;BME280;17737;52.586;13.284;2022-08-19T07:21:24;71414.19;;;-145.00;100.00
31082;BME280;17737;52.586;13.284;2022-08-19T07:23:55;71414.19;;;-145.00;100.00
31082;BME280;17737;52.586;13.284;2022-08-19T07:26:33;71414.19;;;-145.00;100.00
31082;BME280;17737;52.586;13.284;2022-08-19T07:29:07;71414.19;;;-145.00;100.00
31082;BME280;17737;52.586;13.284;2022-08-19T07:31:37;71414.19;;;-145.00;100.00
31082;BME280;17737;52.586;13.284;2022-08-19T07:34:09;71414.19;;;-145.00;100.00
31082;BME280;17737;52.586;13.284;2022-08-19T07:36:44;71414.19;;;-145.00;100.00
31082;BME280;17737;52.586;13.284;2022-08-19T07:39:12;71414.19;;;-145.00;100.00
31082;BME280;17737;52.586;13.284;2022-08-19T07:41:42;71414.19;;;-145.00;100.00
31082;BME280;17737;52.586;13.284;2022-08-19T07:44:10;71414.19;;;-145.00;100.00
31082;BME280;17737;52.586;13.284;2022-08-19T07:46:49;71414.19;;;-145.00;100.00
31082;BME280;17737;52.586;13.284;2022-08-19T07:49:23;71414.19;;;-145.00;100.00
31082;BME280;17737;52.586;13.284;2022-08-19T07:51:53;71414.19;;;-145.00;100.00
31082;BME280;17737;52.586;13.284;2022-08-19T07:54:29;71414.19;;;-145.00;100.00
31082;BME280;17737;52.586;13.284;2022-08-19T07:57:00;71414.19;;;-145.00;100.00
31082;BME280;17737;52.586;13.284;2022-08-19T07:59:28;71414.19;;;-145.00;100.00
31082;BME280;17737;52.586;13.284;2022-08-19T08:01:57;71414.19;;;-145.00;100.00
31082;BME280;17737;52.586;13.284;2022-08-19T08:04:27;71414.19;;;-145.00;100.00
31082;BME280;17737;52.586;13.284;2022-08-19T08:07:13;71414.19;;;-145.00;100.00
31082;BME280;17737;52.586;13.284;2022-08-19T08:10:00;71414.19;;;-145.00;100.00
31082;BME280;17737;52.586;13.284;2022-08-19T08:12:30;71414.19;;;-145.00;100.00
31082;BME280;17737;52.586;13.284;2022-08-19T08:15:08;71414.19;;;-145.00;100.00
31082;BME280;17737;52.586;13.284;2022-08-19T08:18:01;71414.19;;;-145.00;100.00
31082;BME280;17737;52.586;13.284;2022-08-19T08:20:30;71414.19;;;-145.00;100.00
31082;BME280;17737;52.586;13.284;2022-08-19T08:22:58;71414.19;;;-145.00;100.00
31082;BME280;17737;52.586;13.284;2022-08-19T08:25:43;71414.19;;;-145.00;100.00
31082;BME280;17737;52.586;13.284;2022-08-19T08:28:17;71414.19;;;-145.00;100.00
31082;BME280;17737;52.586;13.284;2022-08-19T08:30:46;71414.19;;;-145.00;100.00
31082;BME280;17737;52.586;13.284;2022-08-19T08:33:18;71414.19;;;-145.00;100.00
31082;BME280;17737;52.586;13.284;2022-08-19T08:36:01;71414.19;;;-145.00;100.00
31082;BME280;17737;52.586;13.284;2022-08-19T08:38:30;71414.19;;;-145.00;100.00
31082;BME280;17737;52.586;13.284;2022-08-19T08:41:07;71414.19;;;-145.00;100.00
31082;BME280;17737;52.586;13.284;2022-08-19T08:43:46;71414.19;;;-145.00;100.00
31082;BME280;17737;52.586;13.284;2022-08-19T08:46:18;71414.19;;;-145.00;100.00
31082;BME280;17737;52.586;13.284;2022-08-19T08:48:58;71414.19;;;-145.00;100.00
31082;BME280;17737;52.586;13.284;2022-08-19T08:51:36;71414.19;;;-145.00;100.00
31082;BME280;17737;52.586;13.284;2022-08-19T08:54:11;71414.19;;;-145.00;100.00
31082;BME280;17737;52.586;13.284;2022-08-19T08:56:41;71414.19;;;-145.00;100.00
31082;BME280;17737;52.586;13.284;2022-08-19T08:59:12;71414.19;;;-145.00;100.00
31082;BME280;17737;52.586;13.284;2022-08-19T09:01:48;71414.19;;;-145.00;100.00
31082;BME280;17737;52.586;13.284;2022-08-19T09:04:17;71414.19;;;-145.00;100.00
31082;BME280;17737;52.586;13.284;2022-08-19T09:06:48;71414.19;;;-145.00;100.00
31082;BME280;17737;52.586;13.284;2022-08-19T09:09:26;71414.19;;;-145.00;100.00
31082;BME280;17737;52.586;13.284;2022-08-19T09:12:38;71414.19;;;-145.00;100.00
31082;BME280;17737;52.586;13.284;2022-08-19T09:15:08;71414.19;;;-145.00;100.00
31082;BME280;17737;52.586;13.284;2022-08-19T09:17:39;71414.19;;;-145.00;100.00
31082;BME280;17737;52.586;13.284;2022-08-19T09:20:13;71414.19;;;-145.00;100.00
31082;BME280;17737;52.586;13.284;2022-08-19T09:22:45;71414.19;;;-145.00;100.00
31082;BME280;17737;52.586;13.284;2022-08-19T09:25:16;71414.19;;;-145.00;100.00
31082;BME280;17737;52.586;13.284;2022-08-19T09:27:54;71414.19;;;-145.00;100.00
31082;BME280;17737;52.586;13.284;2022-08-19T09:30:32;71414.19;;;-145.00;100.00
31082;BME280;17737;52.586;13.284;2022-08-19T09:33:02;71414.19;;;-145.00;100.00
31082;BME280;17737;52.586;13.284;2022-08-19T09:35:32;71414.19;;;-145.00;100.00
31082;BME280;17737;52.586;13.284;2022-08-19T09:38:19;71414.19;;;-145.00;100.00
31082;BME280;17737;52.586;13.284;2022-08-19T09:40:47;71414.19;;;-145.00;100.00
31082;BME280;17737;52.586;13.284;2022-08-19T09:43:16;71414.19;;;-145.00;100.00
31082;BME280;17737;52.586;13.284;2022-08-19T09:46:04;71414.19;;;-145.00;100.00
31082;BME280;17737;52.586;13.284;2022-08-19T09:48:35;71414.19;;;-145.00;100.00
31082;BME280;17737;52.586;13.284;2022-08-19T09:51:06;71414.19;;;-145.00;100.00
31082;BME280;17737;52.586;13.284;2022-08-19T09:53:37;71414.19;;;-145.00;100.00
31082;BME280;17737;52.586;13.284;2022-08-19T09:56:06;71414.19;;;-145.00;100.00
31082;BME280;17737;52.586;13.284;2022-08-19T09:58:34;71414.19;;;-145.00;100.00
31082;BME280;17737;52.586;13.284;2022-08-19T10:01:04;71414.19;;;-145.00;100.00
31082;BME280;17737;52.586;13.284;2022-08-19T10:03:34;71414.19;;;-145.00;100.00
31082;BME280;17737;52.586;13.284;2022-08-19T10:06:04;71414.19;;;-145.00;100.00
31082;BME280;17737;52.586;13.284;2022-08-19T10:08:40;71414.19;;;-145.00;100.00
31082;BME280;17737;52.586;13.284;2022-08-19T10:11:15;71414.19;;;-145.00;100.00
31082;BME280;17737;52.586;13.284;2022-08-19T10:14:02;71414.19;;;-145.00;100.00
31082;BME280;17737;52.586;13.284;2022-08-19T10:16:32;71414.19;;;-145.00;100.00
31082;BME280;17737;52.586;13.284;2022-08-19T10:19:04;71414.19;;;-145.00;100.00
31082;BME280;17737;52.586;13.284;2022-08-19T10:21:34;71414.19;;;-145.00;100.00
31082;BME280;17737;52.586;13.284;2022-08-19T10:24:05;71414.19;;;-145.00;100.00
31082;BME280;17737;52.586;13.284;2022-08-19T10:26:36;71414.19;;;-145.00;100.00
31082;BME280;17737;52.586;13.284;2022-08-19T10:29:07;71414.19;;;-145.00;100.00
31082;BME280;17737;52.586;13.284;2022-08-19T10:31:36;71414.19;;;-145.00;100.00
31082;BME280;17737;52.586;13.284;2022-08-19T10:34:23;71414.19;;;-145.00;100.00
31082;BME280;17737;52.586;13.284;2022-08-19T10:36:55;71414.19;;;-145.00;100.00
31082;BME280;17737;52.586;13.284;2022-08-19T10:39:27;71414.19;;;-145.00;100.00
31082;BME280;17737;52.586;13.284;2022-08-19T10:42:09;71414.19;;;-145.00;100.00
31082;BME280;17737;52.586;13.284;2022-08-19T10:44:39;71414.19;;;-145.00;100.00
31082;BME280;17737;52.586;13.284;2022-08-19T10:47:07;71414.19;;;-145.00;100.00
31082;BME280;17737;52.586;13.284;2022-08-19T10:49:50;71414.19;;;-145.00;100.00
31082;BME280;17737;52.586;13.284;2022-08-19T10:52:39;71414.19;;;-145.00;100.00
31082;BME280;17737;52.586;13.284;2022-08-19T10:55:16;71414.19;;;-145.00;100.00
31082;BME280;17737;52.586;13.284;2022-08-19T10:58:09;71414.19;;;-145.00;100.00
31082;BME280;17737;52.586;13.284;2022-08-19T11:00:38;71414.19;;;-145.00;100.00
31082;BME280;17737;52.586;13.284;2022-08-19T11:03:07;71414.19;;;-145.00;100.00
31082;BME280;17737;52.586;13.284;2022-08-19T11:05:35;71414.19;;;-145.00;100.00
31082;BME280;17737;52.586;13.284;2022-08-19T11:08:07;71414.19;;;-145.00;100.00
31082;BME280;17737;52.586;13.284;2022-08-19T11:10:49;71414.19;;;-145.00;100.00
31082;BME280;17737;52.586;13.284;2022-08-19T11:13:17;71414.19;;;-145.00;100.00
31082;BME280;17737;52.586;13.284;2022-08-19T11:15:45;71414.19;;;-145.00;100.00
31082;BME280;17737;52.586;13.284;2022-08-19T11:18:13;71414.19;;;-145.00;100.00
31082;BME280;17737;52.586;13.284;2022-08-19T11:20:43;71414.19;;;-145.00;100.00
31082;BME280;17737;52.586;13.284;2022-08-19T11:23:12;71414.19;;;-145.00;100.00
31082;BME280;17737;52.586;13.284;2022-08-19T11:25:40;71414.19;;;-145.00;100.00
31082;BME280;17737;52.586;13.284;2022-08-19T11:28:07;71414.19;;;-145.00;100.00
31082;BME280;17737;52.586;13.284;2022-08-19T11:30:36;71414.19;;;-145.00;100.00
31082;BME280;17737;52.586;13.284;2022-08-19T11:33:04;71414.19;;;-145.00;100.00
31082;BME280;17737;52.586;13.284;2022-08-19T11:35:32;71414.19;;;-145.00;100.00
31082;BME280;17737;52.586;13.284;2022-08-19T11:38:00;71414.19;;;-145.00;100.00
31082;BME280;17737;52.586;13.284;2022-08-19T11:40:34;71414.19;;;-145.00;100.00
31082;BME280;17737;52.586;13.284;2022-08-19T11:43:03;71414.19;;;-145.00;100.00
31082;BME280;17737;52.586;13.284;2022-08-19T11:45:30;71414.19;;;-145.00;100.00
31082;BME280;17737;52.586;13.284;2022-08-19T11:47:58;71414.19;;;-145.00;100.00
31082;BME280;17737;52.586;13.284;2022-08-19T11:50:27;71414.19;;;-145.00;100.00
31082;BME280;17737;52.586;13.284;2022-08-19T11:52:55;71414.19;;;-145.00;100.00
31082;BME280;17737;52.586;13.284;2022-08-19T11:55:23;71414.19;;;-145.00;100.00
31082;BME280;17737;52.586;13.284;2022-08-19T11:57:52;71414.19;;;-145.00;100.00
31082;BME280;17737;52.586;13.284;2022-08-19T12:00:21;71414.19;;;-145.00;100.00
31082;BME280;17737;52.586;13.284;2022-08-19T12:02:48;71414.19;;;-145.00;100.00
31082;BME280;17737;52.586;13.284;2022-08-19T12:05:16;71414.19;;;-145.00;100.00
31082;BME280;17737;52.586;13.284;2022-08-19T12:07:44;71414.19;;;-145.00;100.00
31082;BME280;17737;52.586;13.284;2022-08-19T12:10:12;71414.19;;;-145.00;100.00
31082;BME280;17737;52.586;13.284;2022-08-19T12:12:44;71414.19;;;-145.00;100.00
31082;BME280;17737;52.586;13.284;2022-08-19T12:15:25;71414.19;;;-145.00;100.00
31082;BME280;17737;52.586;13.284;2022-08-19T12:18:02;71414.19;;;-145.00;100.00
31082;BME280;17737;52.586;13.284;2022-08-19T12:20:30;71414.19;;;-145.00;100.00
31082;BME280;17737;52.586;13.284;2022-08-19T12:23:02;71414.19;;;-145.00;100.00
31082;BME280;17737;52.586;13.284;2022-08-19T12:25:30;71414.19;;;-145.00;100.00
31082;BME280;17737;52.586;13.284;2022-08-19T12:27:58;71414.19;;;-145.00;100.00
31082;BME280;17737;52.586;13.284;2022-08-19T12:30:28;71414.19;;;-145.00;100.00
31082;BME280;17737;52.586;13.284;2022-08-19T12:32:56;71414.19;;;-145.00;100.00
31082;BME280;17737;52.586;13.284;2022-08-19T12:35:25;71414.19;;;-145.00;100.00
31082;BME280;17737;52.586;13.284;2022-08-19T12:37:53;71414.19;;;-145.00;100.00
31082;BME280;17737;52.586;13.284;2022-08-19T12:40:23;71414.19;;;-145.00;100.00
31082;BME280;17737;52.586;13.284;2022-08-19T12:42:51;71414.19;;;-145.00;100.00
31082;BME280;17737;52.586;13.284;2022-08-19T12:45:19;71414.19;;;-145.00;100.00